sensor_id;sensor_type;location;lat;lon;timestamp;P1;durP1;ratioP1;P2;durP2;ratioP2
72369;SDS011;60343;-32.030;115.880;2022-10-03T00:01:13;7.82;;;1.90;;
72369;SDS011;60343;-32.030;115.880;2022-10-03T00:03:55;6.05;;;1.90;;
72369;SDS011;60343;-32.030;115.880;2022-10-03T00:06:35;8.27;;;2.33;;
72369;SDS011;60343;-32.030;115.880;2022-10-03T00:09:15;7.22;;;2.17;;
72369;SDS011;60343;-32.030;115.880;2022-10-03T00:11:58;5.88;;;2.15;;
72369;SDS011;60343;-32.030;115.880;2022-10-03T00:14:53;6.05;;;2.03;;
72369;SDS011;60343;-32.030;115.880;2022-10-03T00:17:29;6.15;;;1.92;;
72369;SDS011;60343;-32.030;115.880;2022-10-03T00:20:17;8.57;;;1.83;;
72369;SDS011;60343;-32.030;115.880;2022-10-03T00:23:00;8.45;;;2.00;;
72369;SDS011;60343;-32.030;115.880;2022-10-03T00:25:38;4.47;;;1.50;;
72369;SDS011;60343;-32.030;115.880;2022-10-03T00:28:16;6.55;;;1.75;;
72369;SDS011;60343;-32.030;115.880;2022-10-03T00:31:01;5.43;;;1.65;;
72369;SDS011;60343;-32.030;115.880;2022-10-03T00:33:38;6.88;;;1.63;;
72369;SDS011;60343;-32.030;115.880;2022-10-03T00:36:19;5.97;;;1.42;;
72369;SDS011;60343;-32.030;115.880;2022-10-03T00:47:58;6.40;;;1.23;;
72369;SDS011;60343;-32.030;115.880;2022-10-03T00:50:43;5.15;;;1.10;;
72369;SDS011;60343;-32.030;115.880;2022-10-03T00:53:23;2.85;;;0.68;;
72369;SDS011;60343;-32.030;115.880;2022-10-03T00:56:05;2.28;;;0.50;;
72369;SDS011;60343;-32.030;115.880;2022-10-03T00:58:50;3.95;;;0.55;;
72369;SDS011;60343;-32.030;115.880;2022-10-03T01:01:32;3.42;;;0.68;;
72369;SDS011;60343;-32.030;115.880;2022-10-03T01:07:15;4.78;;;0.40;;
72369;SDS011;60343;-32.030;115.880;2022-10-03T01:10:00;5.10;;;0.52;;
72369;SDS011;60343;-32.030;115.880;2022-10-03T01:12:50;6.72;;;0.55;;
72369;SDS011;60343;-32.030;115.880;2022-10-03T01:15:31;2.67;;;0.50;;
72369;SDS011;60343;-32.030;115.880;2022-10-03T01:18:20;3.03;;;0.22;;
72369;SDS011;60343;-32.030;115.880;2022-10-03T01:21:08;2.38;;;0.32;;
72369;SDS011;60343;-32.030;115.880;2022-10-03T01:23:57;0.50;;;0.10;;
72369;SDS011;60343;-32.030;115.880;2022-10-03T01:26:54;3.00;;;0.28;;
72369;SDS011;60343;-32.030;115.880;2022-10-03T01:29:31;3.30;;;0.38;;
72369;SDS011;60343;-32.030;115.880;2022-10-03T01:32:16;2.55;;;0.20;;
72369;SDS011;60343;-32.030;115.880;2022-10-03T01:34:51;1.75;;;0.20;;
72369;SDS011;60343;-32.030;115.880;2022-10-03T01:37:26;1.80;;;0.35;;
72369;SDS011;60343;-32.030;115.880;2022-10-03T01:40:02;2.58;;;0.30;;
72369;SDS011;60343;-32.030;115.880;2022-10-03T01:42:40;3.03;;;0.30;;
72369;SDS011;60343;-32.030;115.880;2022-10-03T01:45:28;0.88;;;0.22;;
72369;SDS011;60343;-32.030;115.880;2022-10-03T01:48:05;2.65;;;0.25;;
72369;SDS011;60343;-32.030;115.880;2022-10-03T01:50:42;3.30;;;0.30;;
72369;SDS011;60343;-32.030;115.880;2022-10-03T01:53:22;1.42;;;0.30;;
72369;SDS011;60343;-32.030;115.880;2022-10-03T01:55:57;1.48;;;0.30;;
72369;SDS011;60343;-32.030;115.880;2022-10-03T01:58:33;2.72;;;0.40;;
72369;SDS011;60343;-32.030;115.880;2022-10-03T02:01:18;3.33;;;0.30;;
72369;SDS011;60343;-32.030;115.880;2022-10-03T02:03:52;3.42;;;0.45;;
72369;SDS011;60343;-32.030;115.880;2022-10-03T02:06:27;2.72;;;0.25;;
72369;SDS011;60343;-32.030;115.880;2022-10-03T02:09:08;2.92;;;0.47;;
72369;SDS011;60343;-32.030;115.880;2022-10-03T02:11:53;2.38;;;0.20;;
72369;SDS011;60343;-32.030;115.880;2022-10-03T02:14:31;1.88;;;0.20;;
72369;SDS011;60343;-32.030;115.880;2022-10-03T02:17:10;2.28;;;0.55;;
72369;SDS011;60343;-32.030;115.880;2022-10-03T02:19:49;2.47;;;0.28;;
72369;SDS011;60343;-32.030;115.880;2022-10-03T02:22:31;0.90;;;0.10;;
72369;SDS011;60343;-32.030;115.880;2022-10-03T02:25:18;2.55;;;0.30;;
72369;SDS011;60343;-32.030;115.880;2022-10-03T02:30:58;2.55;;;0.20;;
72369;SDS011;60343;-32.030;115.880;2022-10-03T02:34:14;1.90;;;0.30;;
72369;SDS011;60343;-32.030;115.880;2022-10-03T02:37:08;1.73;;;0.30;;
72369;SDS011;60343;-32.030;115.880;2022-10-03T02:46:11;2.05;;;0.45;;
72369;SDS011;60343;-32.030;115.880;2022-10-03T02:49:17;1.30;;;0.40;;
72369;SDS011;60343;-32.030;115.880;2022-10-03T02:52:12;2.50;;;0.43;;
72369;SDS011;60343;-32.030;115.880;2022-10-03T02:55:19;1.20;;;0.20;;
72369;SDS011;60343;-32.030;115.880;2022-10-03T03:07:35;2.45;;;0.38;;
72369;SDS011;60343;-32.030;115.880;2022-10-03T03:10:23;1.45;;;0.10;;
72369;SDS011;60343;-32.030;115.880;2022-10-03T03:19:17;2.47;;;0.20;;
72369;SDS011;60343;-32.030;115.880;2022-10-03T03:22:17;0.88;;;0.20;;
72369;SDS011;60343;-32.030;115.880;2022-10-03T03:25:06;1.48;;;0.20;;
72369;SDS011;60343;-32.030;115.880;2022-10-03T03:27:56;1.75;;;0.28;;
72369;SDS011;60343;-32.030;115.880;2022-10-03T03:30:31;2.00;;;0.32;;
72369;SDS011;60343;-32.030;115.880;2022-10-03T03:35:44;1.25;;;0.20;;
72369;SDS011;60343;-32.030;115.880;2022-10-03T03:38:34;1.10;;;0.22;;
72369;SDS011;60343;-32.030;115.880;2022-10-03T03:41:19;3.25;;;0.60;;
72369;SDS011;60343;-32.030;115.880;2022-10-03T03:44:04;1.75;;;0.40;;
72369;SDS011;60343;-32.030;115.880;2022-10-03T03:46:59;2.38;;;0.30;;
72369;SDS011;60343;-32.030;115.880;2022-10-03T03:49:40;2.20;;;0.30;;
72369;SDS011;60343;-32.030;115.880;2022-10-03T03:52:26;1.25;;;0.30;;
72369;SDS011;60343;-32.030;115.880;2022-10-03T03:55:18;1.58;;;0.35;;
72369;SDS011;60343;-32.030;115.880;2022-10-03T03:58:06;0.60;;;0.20;;
72369;SDS011;60343;-32.030;115.880;2022-10-03T04:00:47;2.85;;;0.20;;
72369;SDS011;60343;-32.030;115.880;2022-10-03T04:06:06;2.55;;;0.17;;
72369;SDS011;60343;-32.030;115.880;2022-10-03T04:08:51;1.08;;;0.30;;
72369;SDS011;60343;-32.030;115.880;2022-10-03T04:11:42;1.75;;;0.30;;
72369;SDS011;60343;-32.030;115.880;2022-10-03T04:17:19;1.33;;;0.30;;
72369;SDS011;60343;-32.030;115.880;2022-10-03T04:20:01;2.45;;;0.28;;
72369;SDS011;60343;-32.030;115.880;2022-10-03T04:25:32;2.20;;;0.30;;
72369;SDS011;60343;-32.030;115.880;2022-10-03T04:28:22;1.60;;;0.40;;
72369;SDS011;60343;-32.030;115.880;2022-10-03T04:31:15;3.03;;;1.00;;
72369;SDS011;60343;-32.030;115.880;2022-10-03T04:34:01;3.30;;;1.20;;
72369;SDS011;60343;-32.030;115.880;2022-10-03T04:36:54;3.70;;;1.45;;
72369;SDS011;60343;-32.030;115.880;2022-10-03T04:39:43;4.50;;;1.50;;
72369;SDS011;60343;-32.030;115.880;2022-10-03T04:42:22;2.97;;;1.20;;
72369;SDS011;60343;-32.030;115.880;2022-10-03T04:45:09;5.20;;;1.13;;
72369;SDS011;60343;-32.030;115.880;2022-10-03T04:47:50;3.13;;;1.00;;
72369;SDS011;60343;-32.030;115.880;2022-10-03T04:50:27;2.15;;;1.00;;
72369;SDS011;60343;-32.030;115.880;2022-10-03T04:53:10;4.10;;;1.00;;
72369;SDS011;60343;-32.030;115.880;2022-10-03T04:55:48;3.25;;;1.00;;
72369;SDS011;60343;-32.030;115.880;2022-10-03T04:58:23;3.22;;;1.23;;
72369;SDS011;60343;-32.030;115.880;2022-10-03T05:01:02;5.15;;;1.50;;
72369;SDS011;60343;-32.030;115.880;2022-10-03T05:06:21;4.20;;;1.20;;
72369;SDS011;60343;-32.030;115.880;2022-10-03T05:09:05;3.25;;;1.17;;
72369;SDS011;60343;-32.030;115.880;2022-10-03T05:11:48;3.53;;;1.52;;
72369;SDS011;60343;-32.030;115.880;2022-10-03T05:14:26;4.90;;;1.30;;
72369;SDS011;60343;-32.030;115.880;2022-10-03T05:17:13;4.60;;;1.70;;
72369;SDS011;60343;-32.030;115.880;2022-10-03T05:22:46;5.00;;;1.92;;
72369;SDS011;60343;-32.030;115.880;2022-10-03T05:25:28;4.88;;;1.50;;
72369;SDS011;60343;-32.030;115.880;2022-10-03T05:28:11;3.92;;;1.20;;
72369;SDS011;60343;-32.030;115.880;2022-10-03T05:30:53;5.07;;;1.60;;
72369;SDS011;60343;-32.030;115.880;2022-10-03T05:33:39;3.78;;;1.58;;
72369;SDS011;60343;-32.030;115.880;2022-10-03T05:36:14;3.45;;;1.50;;
72369;SDS011;60343;-32.030;115.880;2022-10-03T05:41:55;4.93;;;2.67;;
72369;SDS011;60343;-32.030;115.880;2022-10-03T05:44:47;4.93;;;2.20;;
72369;SDS011;60343;-32.030;115.880;2022-10-03T05:47:26;4.65;;;2.33;;
72369;SDS011;60343;-32.030;115.880;2022-10-03T05:50:08;5.72;;;3.17;;
72369;SDS011;60343;-32.030;115.880;2022-10-03T05:53:00;5.50;;;2.95;;
72369;SDS011;60343;-32.030;115.880;2022-10-03T05:55:45;5.30;;;3.00;;
72369;SDS011;60343;-32.030;115.880;2022-10-03T06:01:39;10.77;;;5.50;;
72369;SDS011;60343;-32.030;115.880;2022-10-03T06:07:28;9.73;;;6.47;;
72369;SDS011;60343;-32.030;115.880;2022-10-03T06:13:08;8.27;;;5.38;;
72369;SDS011;60343;-32.030;115.880;2022-10-03T06:15:49;10.32;;;6.32;;
72369;SDS011;60343;-32.030;115.880;2022-10-03T06:18:35;9.07;;;5.10;;
72369;SDS011;60343;-32.030;115.880;2022-10-03T06:21:29;8.52;;;5.50;;
72369;SDS011;60343;-32.030;115.880;2022-10-03T06:24:50;11.10;;;6.80;;
72369;SDS011;60343;-32.030;115.880;2022-10-03T06:28:05;10.95;;;7.68;;
72369;SDS011;60343;-32.030;115.880;2022-10-03T06:31:04;15.00;;;8.57;;
72369;SDS011;60343;-32.030;115.880;2022-10-03T06:34:02;14.13;;;8.70;;
72369;SDS011;60343;-32.030;115.880;2022-10-03T06:42:52;10.85;;;6.95;;
72369;SDS011;60343;-32.030;115.880;2022-10-03T06:45:51;9.82;;;5.75;;
72369;SDS011;60343;-32.030;115.880;2022-10-03T06:48:50;10.20;;;6.40;;
72369;SDS011;60343;-32.030;115.880;2022-10-03T06:51:50;11.02;;;7.95;;
72369;SDS011;60343;-32.030;115.880;2022-10-03T06:54:53;12.55;;;8.45;;
72369;SDS011;60343;-32.030;115.880;2022-10-03T07:06:38;11.63;;;7.00;;
72369;SDS011;60343;-32.030;115.880;2022-10-03T07:15:26;11.60;;;7.03;;
72369;SDS011;60343;-32.030;115.880;2022-10-03T07:24:14;9.35;;;5.90;;
72369;SDS011;60343;-32.030;115.880;2022-10-03T07:27:05;9.48;;;5.05;;
72369;SDS011;60343;-32.030;115.880;2022-10-03T07:29:53;5.43;;;3.45;;
72369;SDS011;60343;-32.030;115.880;2022-10-03T07:32:50;4.97;;;2.63;;
72369;SDS011;60343;-32.030;115.880;2022-10-03T07:35:49;4.82;;;1.80;;
72369;SDS011;60343;-32.030;115.880;2022-10-03T07:44:43;5.40;;;1.77;;
72369;SDS011;60343;-32.030;115.880;2022-10-03T07:47:34;3.67;;;1.80;;
72369;SDS011;60343;-32.030;115.880;2022-10-03T07:53:51;6.10;;;2.10;;
72369;SDS011;60343;-32.030;115.880;2022-10-03T07:56:49;4.18;;;2.15;;
72369;SDS011;60343;-32.030;115.880;2022-10-03T07:59:34;4.63;;;1.23;;
72369;SDS011;60343;-32.030;115.880;2022-10-03T08:02:40;2.65;;;0.80;;
72369;SDS011;60343;-32.030;115.880;2022-10-03T08:05:42;3.15;;;0.85;;
72369;SDS011;60343;-32.030;115.880;2022-10-03T08:08:29;4.40;;;1.02;;
72369;SDS011;60343;-32.030;115.880;2022-10-03T08:14:16;7.10;;;1.13;;
72369;SDS011;60343;-32.030;115.880;2022-10-03T08:16:56;3.88;;;1.30;;
72369;SDS011;60343;-32.030;115.880;2022-10-03T08:22:50;4.63;;;1.00;;
72369;SDS011;60343;-32.030;115.880;2022-10-03T08:25:29;3.20;;;0.90;;
72369;SDS011;60343;-32.030;115.880;2022-10-03T08:31:29;4.15;;;0.95;;
72369;SDS011;60343;-32.030;115.880;2022-10-03T08:34:26;1.15;;;0.22;;
72369;SDS011;60343;-32.030;115.880;2022-10-03T08:40:50;2.95;;;0.30;;
72369;SDS011;60343;-32.030;115.880;2022-10-03T08:49:33;2.15;;;0.30;;
72369;SDS011;60343;-32.030;115.880;2022-10-03T08:52:31;2.50;;;0.30;;
72369;SDS011;60343;-32.030;115.880;2022-10-03T08:55:17;3.47;;;0.30;;
72369;SDS011;60343;-32.030;115.880;2022-10-03T09:04:03;0.90;;;0.13;;
72369;SDS011;60343;-32.030;115.880;2022-10-03T09:07:09;5.25;;;0.40;;
72369;SDS011;60343;-32.030;115.880;2022-10-03T09:10:09;6.38;;;0.40;;
72369;SDS011;60343;-32.030;115.880;2022-10-03T09:19:30;1.77;;;0.40;;
72369;SDS011;60343;-32.030;115.880;2022-10-03T09:25:22;1.95;;;0.50;;
72369;SDS011;60343;-32.030;115.880;2022-10-03T09:31:12;3.55;;;0.57;;
72369;SDS011;60343;-32.030;115.880;2022-10-03T09:40:15;3.58;;;0.55;;
72369;SDS011;60343;-32.030;115.880;2022-10-03T09:43:08;7.20;;;0.60;;
72369;SDS011;60343;-32.030;115.880;2022-10-03T09:45:55;2.40;;;0.65;;
72369;SDS011;60343;-32.030;115.880;2022-10-03T09:48:54;5.55;;;0.65;;
72369;SDS011;60343;-32.030;115.880;2022-10-03T09:51:48;2.85;;;0.60;;
72369;SDS011;60343;-32.030;115.880;2022-10-03T10:00:31;4.65;;;0.70;;
72369;SDS011;60343;-32.030;115.880;2022-10-03T10:03:27;4.60;;;0.90;;
72369;SDS011;60343;-32.030;115.880;2022-10-03T10:06:18;4.28;;;1.02;;
72369;SDS011;60343;-32.030;115.880;2022-10-03T10:15:02;6.00;;;1.30;;
72369;SDS011;60343;-32.030;115.880;2022-10-03T10:17:57;3.53;;;1.15;;
72369;SDS011;60343;-32.030;115.880;2022-10-03T10:21:17;5.57;;;1.20;;
72369;SDS011;60343;-32.030;115.880;2022-10-03T10:39:44;4.85;;;1.33;;
72369;SDS011;60343;-32.030;115.880;2022-10-03T10:46:05;4.75;;;1.52;;
72369;SDS011;60343;-32.030;115.880;2022-10-03T10:55:26;6.22;;;1.50;;
72369;SDS011;60343;-32.030;115.880;2022-10-03T10:58:31;8.45;;;1.50;;
72369;SDS011;60343;-32.030;115.880;2022-10-03T11:07:42;4.30;;;1.70;;
72369;SDS011;60343;-32.030;115.880;2022-10-03T11:10:39;4.57;;;1.52;;
72369;SDS011;60343;-32.030;115.880;2022-10-03T11:16:39;6.43;;;1.58;;
72369;SDS011;60343;-32.030;115.880;2022-10-03T11:22:52;5.05;;;1.73;;
72369;SDS011;60343;-32.030;115.880;2022-10-03T11:25:58;6.15;;;2.10;;
72369;SDS011;60343;-32.030;115.880;2022-10-03T11:28:57;6.78;;;2.28;;
72369;SDS011;60343;-32.030;115.880;2022-10-03T11:35:08;5.70;;;1.80;;
72369;SDS011;60343;-32.030;115.880;2022-10-03T11:37:54;7.93;;;1.55;;
72369;SDS011;60343;-32.030;115.880;2022-10-03T11:40:35;3.47;;;1.45;;
72369;SDS011;60343;-32.030;115.880;2022-10-03T11:43:24;9.80;;;1.70;;
72369;SDS011;60343;-32.030;115.880;2022-10-03T11:46:19;7.35;;;1.48;;
72369;SDS011;60343;-32.030;115.880;2022-10-03T11:48:55;3.67;;;1.35;;
72369;SDS011;60343;-32.030;115.880;2022-10-03T11:51:36;5.45;;;1.50;;
72369;SDS011;60343;-32.030;115.880;2022-10-03T11:54:19;5.72;;;1.63;;
72369;SDS011;60343;-32.030;115.880;2022-10-03T11:56:52;4.63;;;1.48;;
72369;SDS011;60343;-32.030;115.880;2022-10-03T11:59:42;3.95;;;1.30;;
72369;SDS011;60343;-32.030;115.880;2022-10-03T12:02:34;7.45;;;1.65;;
72369;SDS011;60343;-32.030;115.880;2022-10-03T12:05:20;4.07;;;1.20;;
72369;SDS011;60343;-32.030;115.880;2022-10-03T12:07:55;6.10;;;1.50;;
72369;SDS011;60343;-32.030;115.880;2022-10-03T12:10:46;3.65;;;1.50;;
72369;SDS011;60343;-32.030;115.880;2022-10-03T12:13:22;5.07;;;1.48;;
72369;SDS011;60343;-32.030;115.880;2022-10-03T12:16:05;4.25;;;1.38;;
72369;SDS011;60343;-32.030;115.880;2022-10-03T12:18:52;4.88;;;1.33;;
72369;SDS011;60343;-32.030;115.880;2022-10-03T12:21:29;2.88;;;1.10;;
72369;SDS011;60343;-32.030;115.880;2022-10-03T12:24:14;3.05;;;1.00;;
72369;SDS011;60343;-32.030;115.880;2022-10-03T12:26:51;5.35;;;1.50;;
72369;SDS011;60343;-32.030;115.880;2022-10-03T12:29:23;5.55;;;1.40;;
72369;SDS011;60343;-32.030;115.880;2022-10-03T12:32:04;4.15;;;1.20;;
72369;SDS011;60343;-32.030;115.880;2022-10-03T12:34:55;7.10;;;1.27;;
72369;SDS011;60343;-32.030;115.880;2022-10-03T12:37:37;5.30;;;1.23;;
72369;SDS011;60343;-32.030;115.880;2022-10-03T12:40:17;3.65;;;1.10;;
72369;SDS011;60343;-32.030;115.880;2022-10-03T12:42:53;3.95;;;1.20;;
72369;SDS011;60343;-32.030;115.880;2022-10-03T12:45:29;4.78;;;1.00;;
72369;SDS011;60343;-32.030;115.880;2022-10-03T12:48:14;6.20;;;1.40;;
72369;SDS011;60343;-32.030;115.880;2022-10-03T12:51:05;4.22;;;1.02;;
72369;SDS011;60343;-32.030;115.880;2022-10-03T12:53:47;3.58;;;1.05;;
72369;SDS011;60343;-32.030;115.880;2022-10-03T12:56:29;5.60;;;1.10;;
72369;SDS011;60343;-32.030;115.880;2022-10-03T12:59:09;2.67;;;1.10;;
72369;SDS011;60343;-32.030;115.880;2022-10-03T13:01:50;4.63;;;1.20;;
72369;SDS011;60343;-32.030;115.880;2022-10-03T13:04:36;3.75;;;1.30;;
72369;SDS011;60343;-32.030;115.880;2022-10-03T13:07:12;5.13;;;1.35;;
72369;SDS011;60343;-32.030;115.880;2022-10-03T13:09:54;4.65;;;1.60;;
72369;SDS011;60343;-32.030;115.880;2022-10-03T13:12:33;3.17;;;1.30;;
72369;SDS011;60343;-32.030;115.880;2022-10-03T13:18:09;5.32;;;1.80;;
72369;SDS011;60343;-32.030;115.880;2022-10-03T13:20:54;4.57;;;1.60;;
72369;SDS011;60343;-32.030;115.880;2022-10-03T13:23:31;4.10;;;1.55;;
72369;SDS011;60343;-32.030;115.880;2022-10-03T13:26:11;5.40;;;1.63;;
72369;SDS011;60343;-32.030;115.880;2022-10-03T13:28:50;4.15;;;1.50;;
72369;SDS011;60343;-32.030;115.880;2022-10-03T13:31:33;6.43;;;1.77;;
72369;SDS011;60343;-32.030;115.880;2022-10-03T13:34:12;4.88;;;1.90;;
72369;SDS011;60343;-32.030;115.880;2022-10-03T13:36:49;8.23;;;1.83;;
72369;SDS011;60343;-32.030;115.880;2022-10-03T13:39:22;11.23;;;2.30;;
72369;SDS011;60343;-32.030;115.880;2022-10-03T13:41:56;7.95;;;2.10;;
72369;SDS011;60343;-32.030;115.880;2022-10-03T13:44:36;5.35;;;2.40;;
72369;SDS011;60343;-32.030;115.880;2022-10-03T13:49:50;8.57;;;2.92;;
72369;SDS011;60343;-32.030;115.880;2022-10-03T13:55:11;9.63;;;3.55;;
72369;SDS011;60343;-32.030;115.880;2022-10-03T13:57:44;11.55;;;4.18;;
72369;SDS011;60343;-32.030;115.880;2022-10-03T14:00:22;10.77;;;4.50;;
72369;SDS011;60343;-32.030;115.880;2022-10-03T14:05:58;12.13;;;4.80;;
72369;SDS011;60343;-32.030;115.880;2022-10-03T14:08:45;11.90;;;4.53;;
72369;SDS011;60343;-32.030;115.880;2022-10-03T14:11:30;12.95;;;4.95;;
72369;SDS011;60343;-32.030;115.880;2022-10-03T14:17:04;17.02;;;4.93;;
72369;SDS011;60343;-32.030;115.880;2022-10-03T14:19:39;12.63;;;4.55;;
72369;SDS011;60343;-32.030;115.880;2022-10-03T14:22:26;11.80;;;4.25;;
72369;SDS011;60343;-32.030;115.880;2022-10-03T14:25:12;12.98;;;4.43;;
72369;SDS011;60343;-32.030;115.880;2022-10-03T14:27:48;11.57;;;4.18;;
72369;SDS011;60343;-32.030;115.880;2022-10-03T14:30:22;14.63;;;4.57;;
72369;SDS011;60343;-32.030;115.880;2022-10-03T14:33:03;11.15;;;3.88;;
72369;SDS011;60343;-32.030;115.880;2022-10-03T14:35:52;9.93;;;3.42;;
72369;SDS011;60343;-32.030;115.880;2022-10-03T14:38:35;13.10;;;4.53;;
72369;SDS011;60343;-32.030;115.880;2022-10-03T14:41:21;13.45;;;4.30;;
72369;SDS011;60343;-32.030;115.880;2022-10-03T14:43:55;11.27;;;3.78;;
72369;SDS011;60343;-32.030;115.880;2022-10-03T14:46:28;8.48;;;3.40;;
72369;SDS011;60343;-32.030;115.880;2022-10-03T14:48:59;7.35;;;2.75;;
72369;SDS011;60343;-32.030;115.880;2022-10-03T14:51:29;8.70;;;2.17;;
72369;SDS011;60343;-32.030;115.880;2022-10-03T14:54:02;6.53;;;1.88;;
72369;SDS011;60343;-32.030;115.880;2022-10-03T14:56:49;6.97;;;1.83;;
72369;SDS011;60343;-32.030;115.880;2022-10-03T14:59:20;4.10;;;1.45;;
72369;SDS011;60343;-32.030;115.880;2022-10-03T15:01:51;4.28;;;1.52;;
72369;SDS011;60343;-32.030;115.880;2022-10-03T15:04:24;7.65;;;2.00;;
72369;SDS011;60343;-32.030;115.880;2022-10-03T15:06:56;6.13;;;2.08;;
72369;SDS011;60343;-32.030;115.880;2022-10-03T15:09:30;4.82;;;2.03;;
72369;SDS011;60343;-32.030;115.880;2022-10-03T15:12:14;7.00;;;2.42;;
72369;SDS011;60343;-32.030;115.880;2022-10-03T15:14:44;6.95;;;2.33;;
72369;SDS011;60343;-32.030;115.880;2022-10-03T15:17:21;5.50;;;2.40;;
72369;SDS011;60343;-32.030;115.880;2022-10-03T15:19:52;6.75;;;2.75;;
72369;SDS011;60343;-32.030;115.880;2022-10-03T15:22:31;6.80;;;2.25;;
72369;SDS011;60343;-32.030;115.880;2022-10-03T15:25:05;6.45;;;2.47;;
72369;SDS011;60343;-32.030;115.880;2022-10-03T15:27:44;7.70;;;2.50;;
72369;SDS011;60343;-32.030;115.880;2022-10-03T15:30:19;6.15;;;2.42;;
72369;SDS011;60343;-32.030;115.880;2022-10-03T15:32:48;4.93;;;1.88;;
72369;SDS011;60343;-32.030;115.880;2022-10-03T15:35:18;6.57;;;1.85;;
72369;SDS011;60343;-32.030;115.880;2022-10-03T15:37:49;6.15;;;1.83;;
72369;SDS011;60343;-32.030;115.880;2022-10-03T15:40:21;4.80;;;1.50;;
72369;SDS011;60343;-32.030;115.880;2022-10-03T15:43:15;3.38;;;1.17;;
72369;SDS011;60343;-32.030;115.880;2022-10-03T15:45:56;4.28;;;1.30;;
72369;SDS011;60343;-32.030;115.880;2022-10-03T15:48:35;2.85;;;1.02;;
72369;SDS011;60343;-32.030;115.880;2022-10-03T15:51:12;3.50;;;1.20;;
72369;SDS011;60343;-32.030;115.880;2022-10-03T15:53:47;4.65;;;1.30;;
72369;SDS011;60343;-32.030;115.880;2022-10-03T15:56:16;4.10;;;1.10;;
72369;SDS011;60343;-32.030;115.880;2022-10-03T15:58:54;6.03;;;1.27;;
72369;SDS011;60343;-32.030;115.880;2022-10-03T16:01:26;4.10;;;1.23;;
72369;SDS011;60343;-32.030;115.880;2022-10-03T16:03:59;4.82;;;1.40;;
72369;SDS011;60343;-32.030;115.880;2022-10-03T16:06:29;4.55;;;1.60;;
72369;SDS011;60343;-32.030;115.880;2022-10-03T16:09:12;4.20;;;1.30;;
72369;SDS011;60343;-32.030;115.880;2022-10-03T16:11:50;4.25;;;1.50;;
72369;SDS011;60343;-32.030;115.880;2022-10-03T16:14:33;6.32;;;1.80;;
72369;SDS011;60343;-32.030;115.880;2022-10-03T16:17:09;5.00;;;1.52;;
72369;SDS011;60343;-32.030;115.880;2022-10-03T16:19:42;5.38;;;1.80;;
72369;SDS011;60343;-32.030;115.880;2022-10-03T16:22:19;6.15;;;1.83;;
72369;SDS011;60343;-32.030;115.880;2022-10-03T16:24:56;5.38;;;2.10;;
72369;SDS011;60343;-32.030;115.880;2022-10-03T16:27:31;4.85;;;1.52;;
72369;SDS011;60343;-32.030;115.880;2022-10-03T16:33:00;4.95;;;1.55;;
72369;SDS011;60343;-32.030;115.880;2022-10-03T16:35:40;5.10;;;1.50;;
72369;SDS011;60343;-32.030;115.880;2022-10-03T16:38:16;4.43;;;1.10;;
72369;SDS011;60343;-32.030;115.880;2022-10-03T16:40:54;4.07;;;0.88;;
72369;SDS011;60343;-32.030;115.880;2022-10-03T16:43:24;3.58;;;0.98;;
72369;SDS011;60343;-32.030;115.880;2022-10-03T16:46:06;4.80;;;0.90;;
72369;SDS011;60343;-32.030;115.880;2022-10-03T16:48:43;4.82;;;1.30;;
72369;SDS011;60343;-32.030;115.880;2022-10-03T16:51:16;3.50;;;0.70;;
72369;SDS011;60343;-32.030;115.880;2022-10-03T16:53:49;5.63;;;0.90;;
72369;SDS011;60343;-32.030;115.880;2022-10-03T16:56:20;3.17;;;0.63;;
72369;SDS011;60343;-32.030;115.880;2022-10-03T16:58:54;3.05;;;0.60;;
72369;SDS011;60343;-32.030;115.880;2022-10-03T17:01:31;4.20;;;0.70;;
72369;SDS011;60343;-32.030;115.880;2022-10-03T17:04:11;1.35;;;0.22;;
72369;SDS011;60343;-32.030;115.880;2022-10-03T17:06:43;1.85;;;0.40;;
72369;SDS011;60343;-32.030;115.880;2022-10-03T17:09:18;2.85;;;0.50;;
72369;SDS011;60343;-32.030;115.880;2022-10-03T17:11:51;4.38;;;0.47;;
72369;SDS011;60343;-32.030;115.880;2022-10-03T17:14:22;3.22;;;0.47;;
72369;SDS011;60343;-32.030;115.880;2022-10-03T17:19:30;1.42;;;0.17;;
72369;SDS011;60343;-32.030;115.880;2022-10-03T17:22:05;1.23;;;0.22;;
72369;SDS011;60343;-32.030;115.880;2022-10-03T17:24:42;0.75;;;0.10;;
72369;SDS011;60343;-32.030;115.880;2022-10-03T17:27:15;1.98;;;0.20;;
72369;SDS011;60343;-32.030;115.880;2022-10-03T17:29:49;0.57;;;0.10;;
72369;SDS011;60343;-32.030;115.880;2022-10-03T17:32:27;0.90;;;0.10;;
72369;SDS011;60343;-32.030;115.880;2022-10-03T17:35:01;2.17;;;0.20;;
72369;SDS011;60343;-32.030;115.880;2022-10-03T17:43:29;0.63;;;0.10;;
72369;SDS011;60343;-32.030;115.880;2022-10-03T17:46:05;1.10;;;0.10;;
72369;SDS011;60343;-32.030;115.880;2022-10-03T17:48:46;2.72;;;0.30;;
72369;SDS011;60343;-32.030;115.880;2022-10-03T17:51:30;4.18;;;0.13;;
72369;SDS011;60343;-32.030;115.880;2022-10-03T17:54:04;0.65;;;0.10;;
72369;SDS011;60343;-32.030;115.880;2022-10-03T17:56:36;3.53;;;0.13;;
72369;SDS011;60343;-32.030;115.880;2022-10-03T17:59:12;0.98;;;0.30;;
72369;SDS011;60343;-32.030;115.880;2022-10-03T18:01:46;2.08;;;0.30;;
72369;SDS011;60343;-32.030;115.880;2022-10-03T18:04:26;1.30;;;0.15;;
72369;SDS011;60343;-32.030;115.880;2022-10-03T18:06:58;1.95;;;0.20;;
72369;SDS011;60343;-32.030;115.880;2022-10-03T18:09:32;1.70;;;0.30;;
72369;SDS011;60343;-32.030;115.880;2022-10-03T18:12:07;2.10;;;0.20;;
72369;SDS011;60343;-32.030;115.880;2022-10-03T18:14:43;1.05;;;0.28;;
72369;SDS011;60343;-32.030;115.880;2022-10-03T18:17:19;1.45;;;0.10;;
72369;SDS011;60343;-32.030;115.880;2022-10-03T18:20:01;0.88;;;0.15;;
72369;SDS011;60343;-32.030;115.880;2022-10-03T18:22:44;1.65;;;0.10;;
72369;SDS011;60343;-32.030;115.880;2022-10-03T18:25:14;0.40;;;0.20;;
72369;SDS011;60343;-32.030;115.880;2022-10-03T18:30:43;2.25;;;0.20;;
72369;SDS011;60343;-32.030;115.880;2022-10-03T18:33:17;3.03;;;0.40;;
72369;SDS011;60343;-32.030;115.880;2022-10-03T18:35:56;0.68;;;0.10;;
72369;SDS011;60343;-32.030;115.880;2022-10-03T18:38:32;0.50;;;0.10;;
72369;SDS011;60343;-32.030;115.880;2022-10-03T18:41:03;1.58;;;0.10;;
72369;SDS011;60343;-32.030;115.880;2022-10-03T18:43:32;3.05;;;0.28;;
72369;SDS011;60343;-32.030;115.880;2022-10-03T18:46:17;0.10;;;0.10;;
72369;SDS011;60343;-32.030;115.880;2022-10-03T18:48:50;1.73;;;0.10;;
72369;SDS011;60343;-32.030;115.880;2022-10-03T18:51:29;2.00;;;0.05;;
72369;SDS011;60343;-32.030;115.880;2022-10-03T18:54:02;0.30;;;0.10;;
72369;SDS011;60343;-32.030;115.880;2022-10-03T18:56:39;4.68;;;0.22;;
72369;SDS011;60343;-32.030;115.880;2022-10-03T18:59:10;0.85;;;0.20;;
72369;SDS011;60343;-32.030;115.880;2022-10-03T19:01:44;1.88;;;0.10;;
72369;SDS011;60343;-32.030;115.880;2022-10-03T19:04:18;1.50;;;0.25;;
72369;SDS011;60343;-32.030;115.880;2022-10-03T19:07:08;0.65;;;0.10;;
72369;SDS011;60343;-32.030;115.880;2022-10-03T19:09:43;0.70;;;0.25;;
72369;SDS011;60343;-32.030;115.880;2022-10-03T19:14:58;1.92;;;0.25;;
72369;SDS011;60343;-32.030;115.880;2022-10-03T19:17:39;0.77;;;0.10;;
72369;SDS011;60343;-32.030;115.880;2022-10-03T19:20:18;1.73;;;0.15;;
72369;SDS011;60343;-32.030;115.880;2022-10-03T19:23:02;0.65;;;0.10;;
72369;SDS011;60343;-32.030;115.880;2022-10-03T19:25:36;1.60;;;0.20;;
72369;SDS011;60343;-32.030;115.880;2022-10-03T19:28:07;1.35;;;0.17;;